Time;durP1;ratioP1;P1;durP2;ratioP2;P2;SDS_P1;SDS_P2;PMS_P1;PMS_P2;Temp;Humidity;BMP_temperature;BMP_pressure;BME280_temperature;BME280_humidity;BME280_pressure;Samples;Min_cycle;Max_cycle;Signal;HPM_P1;HPM_P2
2023/09/25 00:00:43;;;;;;;;;7.40;7.40;;;;;13.10;87.59;99669.25;5049483;28;8861;-72
2023/09/25 00:03:33;;;;;;;;;6.00;6.00;;;;;13.81;85.65;99678.56;5050066;28;8853;-71
2023/09/25 00:06:02;;;;;;;;;6.60;6.20;;;;;13.94;85.09;99671.09;5048920;28;8872;-72
2023/09/25 00:08:31;;;;;;;;;4.40;4.40;;;;;13.49;85.65;99658.41;5051061;28;8942;-70
2023/09/25 00:11:00;;;;;;;;;7.20;7.20;;;;;13.87;85.20;99630.78;5051118;28;9696;-72
2023/09/25 00:13:30;;;;;;;;;7.00;7.00;;;;;14.19;84.81;99633.28;5051031;28;8845;-69
2023/09/25 00:15:59;;;;;;;;;5.00;3.80;;;;;14.12;83.47;99635.25;5051004;28;8860;-72
2023/09/25 00:18:29;;;;;;;;;6.40;6.00;;;;;13.62;84.59;99649.19;5049851;28;8857;-70
2023/09/25 00:20:58;;;;;;;;;4.80;4.60;;;;;13.98;84.45;99641.00;5049970;28;8861;-71
2023/09/25 00:23:27;;;;;;;;;6.00;6.00;;;;;13.65;84.95;99632.38;5049457;28;8982;-72
2023/09/25 00:26:01;;;;;;;;;5.40;4.20;;;;;13.18;86.00;99634.72;5048519;28;8949;-71
2023/09/25 00:28:32;;;;;;;;;6.00;6.00;;;;;13.67;85.75;99636.69;5050981;28;8870;-70
2023/09/25 00:31:01;;;;;;;;;5.00;5.00;;;;;14.15;85.06;99644.84;5015804;28;8841;-70
2023/09/25 00:33:29;;;;;;;;;5.20;5.00;;;;;14.51;83.93;99645.34;5015655;28;8853;-71
2023/09/25 00:35:59;;;;;;;;;5.80;5.80;;;;;14.78;83.01;99638.22;5048384;28;8856;-69
2023/09/25 00:38:27;;;;;;;;;3.00;3.00;;;;;14.81;82.69;99600.19;5050717;28;8895;-72
2023/09/25 00:40:56;;;;;;;;;5.40;4.80;;;;;14.22;82.17;99591.69;5066134;28;8852;-71
2023/09/25 00:43:25;;;;;;;;;5.40;5.40;;;;;14.52;83.14;99611.81;4997598;28;8914;-72
2023/09/25 00:45:56;;;;;;;;;5.20;4.80;;;;;14.84;82.67;99638.00;5050208;28;8842;-70
2023/09/25 00:48:27;;;;;;;;;4.80;4.20;;;;;14.95;82.86;99660.56;5050271;28;8861;-70
2023/09/25 00:50:58;;;;;;;;;3.60;3.60;;;;;14.35;82.66;99662.69;5050255;28;8853;-70
2023/09/25 00:53:29;;;;;;;;;4.40;4.40;;;;;14.57;82.88;99661.00;5046185;28;8986;-70
2023/09/25 00:55:59;;;;;;;;;5.00;5.00;;;;;14.86;82.94;99670.56;5047758;28;8842;-69
2023/09/25 00:58:27;;;;;;;;;3.20;3.00;;;;;14.78;83.15;99662.03;5047072;28;8862;-70
2023/09/25 01:00:58;;;;;;;;;7.00;5.80;;;;;14.84;84.25;99685.63;5007542;28;8893;-71
2023/09/25 01:03:27;;;;;;;;;3.40;3.40;;;;;14.95;83.89;99702.91;4991543;28;8846;-71
2023/09/25 01:05:57;;;;;;;;;3.40;3.20;;;;;15.02;83.73;99680.59;4959287;28;8842;-71
2023/09/25 01:08:26;;;;;;;;;3.60;3.60;;;;;14.73;84.17;99666.63;4990564;28;8870;-71
2023/09/25 01:10:56;;;;;;;;;5.00;5.00;;;;;14.99;83.79;99662.16;5007543;28;8873;-71
2023/09/25 01:13:25;;;;;;;;;3.20;3.20;;;;;14.55;82.98;99664.63;5007662;28;8862;-70
2023/09/25 01:15:55;;;;;;;;;2.20;2.00;;;;;14.27;83.15;99665.59;5007512;28;9711;-71
2023/09/25 01:18:26;;;;;;;;;3.60;3.60;;;;;14.46;84.27;99658.72;5007639;28;8862;-70
2023/09/25 01:20:55;;;;;;;;;4.00;3.40;;;;;14.15;83.41;99664.22;5007506;28;8941;-72
2023/09/25 01:23:25;;;;;;;;;5.60;3.00;;;;;13.87;85.00;99654.56;4993788;28;8881;-72
2023/09/25 01:25:54;;;;;;;;;3.00;3.00;;;;;14.51;83.59;99657.69;5008258;28;8944;-71
2023/09/25 01:28:23;;;;;;;;;3.20;3.20;;;;;14.73;84.08;99676.34;5010579;28;8902;-72
2023/09/25 01:30:53;;;;;;;;;4.00;3.00;;;;;14.52;83.56;99691.19;4994316;28;8866;-72
2023/09/25 01:33:22;;;;;;;;;3.40;3.40;;;;;14.65;83.18;99692.47;5047604;28;8853;-71
2023/09/25 01:35:51;;;;;;;;;4.60;4.60;;;;;14.65;82.81;99698.63;5064698;28;8872;-71
2023/09/25 01:38:20;;;;;;;;;4.40;4.40;;;;;14.73;83.42;99698.38;5031895;28;8922;-71
2023/09/25 01:40:50;;;;;;;;;4.00;4.00;;;;;14.58;83.36;99696.25;5049997;28;10039;-71
2023/09/25 01:43:18;;;;;;;;;4.20;4.20;;;;;14.69;83.69;99699.38;5048849;28;8849;-73
2023/09/25 01:45:48;;;;;;;;;4.00;4.00;;;;;14.76;83.54;99708.88;5063867;28;8899;-73
2023/09/25 01:48:17;;;;;;;;;5.40;5.40;;;;;14.88;83.81;99707.56;5048031;28;8864;-72
2023/09/25 01:50:46;;;;;;;;;4.20;4.20;;;;;15.03;83.26;99707.00;5047621;28;8867;-73
2023/09/25 01:53:14;;;;;;;;;5.60;5.20;;;;;14.37;82.78;99696.06;5047798;28;8857;-70
2023/09/25 01:55:43;;;;;;;;;7.00;5.00;;;;;14.54;83.11;99694.63;5049210;28;8875;-72
2023/09/25 01:58:13;;;;;;;;;5.40;5.20;;;;;14.75;83.21;99693.03;5063210;28;8857;-71
2023/09/25 02:00:42;;;;;;;;;9.80;8.80;;;;;14.38;83.75;99692.53;5030675;28;8863;-71
2023/09/25 02:03:11;;;;;;;;;7.00;6.00;;;;;14.22;84.49;99696.59;5064320;28;9000;-71
2023/09/25 02:05:44;;;;;;;;;6.00;6.00;;;;;14.26;83.54;99696.47;5045231;28;8845;-71
2023/09/25 02:08:14;;;;;;;;;8.20;8.00;;;;;13.65;84.96;99699.25;5049078;28;9603;-72
2023/09/25 02:10:43;;;;;;;;;8.40;8.40;;;;;13.50;86.66;99692.69;5046753;28;8899;-70
2023/09/25 02:13:13;;;;;;;;;7.20;6.80;;;;;13.89;85.68;99704.72;5047732;28;8845;-72
2023/09/25 02:15:42;;;;;;;;;4.80;4.80;;;;;13.95;85.01;99712.47;5049083;28;8877;-73
2023/09/25 02:18:11;;;;;;;;;6.20;5.40;;;;;14.17;85.10;99709.09;5063748;28;8845;-71
2023/09/25 02:20:40;;;;;;;;;6.00;6.00;;;;;14.17;83.98;99703.81;5045810;28;8838;-72
2023/09/25 02:23:09;;;;;;;;;5.40;5.40;;;;;14.41;83.09;99696.84;5011846;28;8854;-73
2023/09/25 02:25:38;;;;;;;;;5.60;5.40;;;;;13.82;84.48;99695.28;5029649;28;8937;-71
2023/09/25 02:28:07;;;;;;;;;5.00;4.00;;;;;13.49;86.44;99695.38;5045842;28;9699;-73
2023/09/25 02:30:38;;;;;;;;;5.00;5.00;;;;;13.87;85.27;99703.91;5045735;28;8846;-71
2023/09/25 02:33:06;;;;;;;;;5.60;4.60;;;;;13.79;84.85;99705.88;5045753;28;8868;-71
2023/09/25 02:35:36;;;;;;;;;3.00;3.00;;;;;13.78;84.89;99710.31;5045788;28;8870;-73
2023/09/25 02:38:06;;;;;;;;;3.80;3.80;;;;;13.42;86.44;99728.16;5029301;28;8854;-71
2023/09/25 02:40:35;;;;;;;;;6.00;5.00;;;;;13.23;87.46;99723.41;5011780;28;8850;-73
2023/09/25 02:43:03;;;;;;;;;5.20;5.20;;;;;13.21;87.91;99721.75;5029379;28;8877;-71
2023/09/25 02:45:33;;;;;;;;;2.00;2.00;;;;;13.12;88.27;99725.50;5045607;28;8854;-71
2023/09/25 02:48:03;;;;;;;;;11.60;6.20;;;;;12.93;89.32;99704.91;5045674;28;8854;-70
2023/09/25 02:50:32;;;;;;;;;6.60;6.60;;;;;12.65;91.46;99701.28;5045646;28;8892;-70
2023/09/25 02:53:01;;;;;;;;;5.60;5.60;;;;;12.90;90.20;99690.94;5063295;28;8865;-72
2023/09/25 02:55:30;;;;;;;;;5.00;4.40;;;;;13.10;89.65;99695.66;5046979;28;8825;-70
2023/09/25 02:57:59;;;;;;;;;10.80;8.80;;;;;13.15;89.34;99695.50;5047093;28;8865;-72
2023/09/25 03:00:28;;;;;;;;;9.00;9.00;;;;;13.66;87.60;99700.16;5063679;28;8930;-70
2023/09/25 03:02:58;;;;;;;;;11.00;11.00;;;;;13.64;86.82;99697.56;5048098;28;9693;-69
2023/09/25 03:05:28;;;;;;;;;10.20;10.20;;;;;14.16;85.74;99702.09;5048237;28;8849;-70
2023/09/25 03:07:57;;;;;;;;;12.80;12.20;;;;;14.58;84.28;99702.41;5047871;28;8891;-72
2023/09/25 03:10:26;;;;;;;;;11.80;10.20;;;;;14.81;83.59;99701.63;5048166;28;8910;-73
2023/09/25 03:12:55;;;;;;;;;16.00;13.20;;;;;15.01;82.89;99706.19;5048342;28;8970;-70
2023/09/25 03:15:24;;;;;;;;;12.60;12.60;;;;;15.07;83.23;99705.09;5061747;28;8833;-71
2023/09/25 03:17:53;;;;;;;;;11.60;11.60;;;;;15.21;82.54;99712.53;5055314;28;8876;-69
2023/09/25 03:20:22;;;;;;;;;16.60;16.00;;;;;15.21;82.81;99709.91;5046724;28;8845;-72
2023/09/25 03:22:54;;;;;;;;;19.80;17.20;;;;;15.27;82.92;99704.38;5050720;28;8978;-72
2023/09/25 03:25:24;;;;;;;;;18.60;18.20;;;;;15.19;82.83;99698.50;5089446;28;9592;-69
2023/09/25 03:27:53;;;;;;;;;19.60;19.60;;;;;15.27;82.56;99690.25;5072607;28;8964;-71
2023/09/25 03:30:23;;;;;;;;;24.20;22.00;;;;;15.35;82.25;99680.22;5072508;28;8878;-69
2023/09/25 03:32:54;;;;;;;;;21.60;21.60;;;;;15.45;81.97;99687.78;5062250;28;8830;-71
2023/09/25 03:35:24;;;;;;;;;22.60;22.20;;;;;15.54;80.27;99685.69;5068709;28;8845;-70
2023/09/25 03:37:54;;;;;;;;;23.40;22.00;;;;;15.54;81.57;99693.63;5071509;28;8958;-68
2023/09/25 03:40:24;;;;;;;;;22.20;22.20;;;;;15.74;81.31;99706.97;5055733;28;8849;-70
2023/09/25 03:42:52;;;;;;;;;20.40;19.80;;;;;15.77;80.84;99709.50;5072342;28;9494;-70
2023/09/25 03:45:22;;;;;;;;;20.00;19.00;;;;;15.93;80.03;99700.94;5039992;28;8839;-70
2023/09/25 03:47:53;;;;;;;;;22.00;22.00;;;;;15.99;79.32;99706.00;5072303;28;9642;-70
2023/09/25 03:50:22;;;;;;;;;42.20;36.00;;;;;16.06;79.00;99696.88;5053146;28;8851;-69
2023/09/25 03:52:51;;;;;;;;;22.60;19.00;;;;;15.89;79.35;99694.03;5022869;28;9626;-69
2023/09/25 03:55:21;;;;;;;;;32.40;31.40;;;;;15.24;81.12;99705.34;5089465;28;8848;-70
2023/09/25 03:57:50;;;;;;;;;17.60;16.00;;;;;15.44;81.32;99690.47;5068475;28;8865;-69
2023/09/25 04:00:19;;;;;;;;;16.00;15.00;;;;;15.63;80.77;99683.56;5068407;28;8847;-72
2023/09/25 04:02:48;;;;;;;;;7.00;7.00;;;;;15.53;80.94;99674.22;5068783;28;8969;-71
2023/09/25 04:05:17;;;;;;;;;14.20;14.20;;;;;15.69;81.00;99679.78;5068487;28;9013;-71
2023/09/25 04:07:46;;;;;;;;;13.40;13.00;;;;;15.85;80.57;99672.09;5067109;28;8870;-71
2023/09/25 04:10:15;;;;;;;;;14.40;13.40;;;;;15.61;79.68;99666.00;5019535;28;8842;-70
2023/09/25 04:12:45;;;;;;;;;12.20;11.20;;;;;15.31;81.53;99673.34;5061635;28;9711;-70
2023/09/25 04:15:16;;;;;;;;;5.60;5.60;;;;;15.60;81.15;99683.69;5050873;28;8841;-71
2023/09/25 04:17:45;;;;;;;;;15.80;14.00;;;;;15.72;80.63;99679.69;5050708;28;8864;-73
2023/09/25 04:20:17;;;;;;;;;22.00;19.00;;;;;15.25;82.37;99683.22;5050938;28;8857;-70
2023/09/25 04:22:47;;;;;;;;;17.80;16.80;;;;;15.53;82.38;99697.19;5064891;28;8841;-70
2023/09/25 04:25:18;;;;;;;;;8.40;8.40;;;;;15.44;81.61;99701.94;5050410;28;9587;-72
2023/09/25 04:27:51;;;;;;;;;10.00;10.00;;;;;15.48;81.31;99707.13;5050597;28;8845;-70
2023/09/25 04:30:21;;;;;;;;;7.40;7.40;;;;;15.52;81.93;99711.38;5015738;28;8833;-72
2023/09/25 04:32:53;;;;;;;;;5.60;5.60;;;;;15.66;82.59;99706.41;5049229;28;9615;-71
2023/09/25 04:35:23;;;;;;;;;7.00;7.00;;;;;15.12;82.61;99711.09;5050437;28;8841;-71
2023/09/25 04:37:53;;;;;;;;;50.80;42.40;;;;;15.29;82.47;99710.47;5049198;28;8871;-73
2023/09/25 04:40:30;;;;;;;;;14.40;13.40;;;;;15.41;82.96;99720.56;5050026;28;8857;-72
2023/09/25 04:43:01;;;;;;;;;8.20;8.00;;;;;15.44;83.44;99723.13;5049954;28;8857;-70
2023/09/25 04:45:30;;;;;;;;;8.80;8.60;;;;;15.34;83.96;99729.69;5029762;28;9073;-71
2023/09/25 04:48:00;;;;;;;;;6.20;6.20;;;;;15.37;83.47;99729.56;5034315;28;8858;-70
2023/09/25 04:50:29;;;;;;;;;10.00;9.40;;;;;15.60;83.06;99735.81;5069880;28;8846;-69
2023/09/25 04:52:58;;;;;;;;;26.00;24.20;;;;;15.77;82.50;99732.50;5068342;28;8866;-70
2023/09/25 04:55:27;;;;;;;;;13.80;12.00;;;;;15.97;82.27;99727.25;5069933;28;8862;-71
2023/09/25 04:57:56;;;;;;;;;10.20;7.60;;;;;16.04;81.29;99722.59;5051271;28;8883;-70
2023/09/25 05:00:27;;;;;;;;;7.60;7.40;;;;;16.07;81.42;99719.78;5046513;28;8858;-71
2023/09/25 05:02:57;;;;;;;;;8.20;7.20;;;;;16.04;81.56;99722.59;5029638;28;8880;-72
2023/09/25 05:05:27;;;;;;;;;8.60;8.00;;;;;16.00;81.56;99726.25;5035350;28;8875;-70
2023/09/25 05:07:57;;;;;;;;;11.40;11.20;;;;;15.90;82.70;99731.06;5068829;28;8850;-69
2023/09/25 05:10:28;;;;;;;;;10.80;10.80;;;;;15.86;82.31;99723.31;5069147;28;8858;-71
2023/09/25 05:12:57;;;;;;;;;8.00;8.00;;;;;15.84;82.71;99726.03;5069626;28;9580;-72
2023/09/25 05:15:28;;;;;;;;;13.00;13.00;;;;;15.91;83.17;99727.53;5068387;28;8838;-78
2023/09/25 05:17:57;;;;;;;;;12.20;12.20;;;;;15.94;83.22;99732.69;5056890;28;8907;-78
2023/09/25 05:20:26;;;;;;;;;6.60;6.60;;;;;15.88;83.25;99730.28;5051531;28;8865;-78
2023/09/25 05:22:57;;;;;;;;;11.40;10.00;;;;;15.79;83.46;99733.28;5055023;28;8852;-77
2023/09/25 05:25:26;;;;;;;;;10.40;9.40;;;;;16.09;82.78;99736.50;5015255;28;8849;-78
2023/09/25 05:27:57;;;;;;;;;12.40;11.60;;;;;15.99;82.17;99733.38;5049535;28;8833;-76
2023/09/25 05:30:28;;;;;;;;;11.80;11.80;;;;;15.95;83.08;99738.88;5050872;28;8881;-76
2023/09/25 05:32:57;;;;;;;;;14.80;14.00;;;;;16.05;82.75;99748.16;5066543;28;8870;-77
2023/09/25 05:35:26;;;;;;;;;15.00;12.80;;;;;16.14;82.56;99746.94;5038016;28;8837;-77
2023/09/25 05:37:54;;;;;;;;;17.60;16.00;;;;;15.61;82.33;99748.16;5085393;28;8870;-77
2023/09/25 05:40:23;;;;;;;;;20.20;18.40;;;;;15.44;83.70;99756.69;5040024;28;8932;-78
2023/09/25 05:42:52;;;;;;;;;19.00;18.80;;;;;15.89;83.11;99750.56;5074130;28;8866;-76
2023/09/25 05:45:21;;;;;;;;;24.00;21.40;;;;;15.03;85.03;99751.13;5062571;28;8858;-77
2023/09/25 05:47:52;;;;;;;;;20.80;18.60;;;;;15.21;85.93;99745.19;5010079;28;8836;-77
2023/09/25 05:50:21;;;;;;;;;20.80;19.80;;;;;15.67;85.12;99747.03;5044261;28;8871;-74
2023/09/25 05:52:50;;;;;;;;;18.80;18.00;;;;;15.83;84.64;99748.16;5060006;28;8860;-76
2023/09/25 05:55:20;;;;;;;;;24.20;21.20;;;;;16.10;82.99;99745.34;5046835;28;8857;-76
2023/09/25 05:57:49;;;;;;;;;23.00;23.00;;;;;16.17;82.77;99747.69;5050969;28;8859;-74
2023/09/25 06:00:19;;;;;;;;;26.80;24.40;;;;;16.40;82.08;99749.38;5041956;28;8872;-74
2023/09/25 06:02:48;;;;;;;;;31.40;29.20;;;;;16.61;81.67;99749.44;5048499;28;8861;-75
2023/09/25 06:05:18;;;;;;;;;26.40;24.60;;;;;16.76;81.36;99751.41;5048515;28;8880;-75
2023/09/25 06:07:47;;;;;;;;;32.40;27.20;;;;;16.95;80.60;99754.13;5051179;28;8874;-74
2023/09/25 06:10:18;;;;;;;;;32.20;29.60;;;;;16.82;80.98;99744.13;5069863;28;8845;-77
2023/09/25 06:12:47;;;;;;;;;27.20;25.40;;;;;16.84;81.13;99750.22;5047542;28;9611;-75
2023/09/25 06:15:17;;;;;;;;;23.40;23.40;;;;;17.20;78.65;99740.59;5047469;28;8895;-72
2023/09/25 06:17:47;;;;;;;;;33.60;30.20;;;;;17.25;79.08;99744.84;5046260;28;8857;-72
2023/09/25 06:20:20;;;;;;;;;28.60;23.00;;;;;17.43;78.50;99751.16;5067723;28;8889;-71
2023/09/25 06:22:49;;;;;;;;;30.20;25.00;;;;;17.39;77.67;99755.75;5066896;28;8862;-74
2023/09/25 06:25:18;;;;;;;;;28.60;27.00;;;;;17.40;78.02;99754.81;5043610;28;8955;-73
2023/09/25 06:27:49;;;;;;;;;27.40;26.40;;;;;17.32;78.06;99768.44;5067266;28;8973;-70
2023/09/25 06:30:19;;;;;;;;;22.00;20.00;;;;;17.34;78.59;99779.88;5067361;28;8858;-71
2023/09/25 06:32:49;;;;;;;;;21.60;21.20;;;;;17.47;78.56;99782.81;5060985;28;8980;-74
2023/09/25 06:35:20;;;;;;;;;27.80;24.40;;;;;17.64;78.39;99781.19;5056752;28;8852;-72
2023/09/25 06:37:49;;;;;;;;;27.20;25.00;;;;;17.64;78.75;99781.19;5067544;28;8878;-71
2023/09/25 06:40:19;;;;;;;;;22.00;21.80;;;;;17.68;78.21;99790.75;5067261;28;8869;-69
2023/09/25 06:42:47;;;;;;;;;27.00;24.60;;;;;17.79;78.43;99801.72;5067877;28;8862;-72
2023/09/25 06:45:17;;;;;;;;;27.60;24.60;;;;;17.89;78.60;99808.38;5065977;28;8850;-72
2023/09/25 06:47:47;;;;;;;;;24.00;24.00;;;;;17.96;77.82;99811.56;5065891;28;8939;-70
2023/09/25 06:50:17;;;;;;;;;30.60;26.40;;;;;17.95;76.76;99809.88;5067372;28;8882;-70
2023/09/25 06:52:47;;;;;;;;;35.20;29.20;;;;;18.09;77.39;99803.91;5050387;28;8865;-70
2023/09/25 06:55:16;;;;;;;;;23.00;22.00;;;;;17.94;78.48;99816.97;5056669;28;8862;-72
2023/09/25 06:57:44;;;;;;;;;25.60;25.00;;;;;18.14;77.92;99809.88;5066478;28;8986;-71
2023/09/25 07:00:14;;;;;;;;;30.60;26.60;;;;;18.15;77.53;99806.25;5052982;28;8861;-70
2023/09/25 07:02:43;;;;;;;;;26.20;26.00;;;;;18.29;77.78;99803.81;5068186;28;9644;-71
2023/09/25 07:05:13;;;;;;;;;27.20;25.40;;;;;18.34;76.54;99815.06;5064023;28;8869;-71
2023/09/25 07:07:43;;;;;;;;;24.60;21.60;;;;;18.40;76.20;99816.56;5046495;28;8868;-70
2023/09/25 07:10:13;;;;;;;;;28.20;23.40;;;;;18.51;76.44;99816.03;5005655;28;8892;-71
2023/09/25 07:12:42;;;;;;;;;21.20;19.80;;;;;18.71;76.02;99831.88;5061990;28;8995;-72
2023/09/25 07:15:12;;;;;;;;;24.60;24.40;;;;;18.69;76.43;99833.78;5058753;28;8846;-72
2023/09/25 07:17:41;;;;;;;;;18.00;18.00;;;;;18.54;74.12;99837.19;5060641;28;8869;-72
2023/09/25 07:20:11;;;;;;;;;25.00;24.40;;;;;18.14;74.26;99841.81;5048229;28;8837;-70
2023/09/25 07:22:39;;;;;;;;;29.00;26.00;;;;;18.55;75.02;99849.56;5051063;28;8934;-70
2023/09/25 07:25:10;;;;;;;;;19.40;19.40;;;;;18.70;73.91;99859.44;5069484;28;8823;-72
2023/09/25 07:27:40;;;;;;;;;26.20;25.60;;;;;19.01;74.03;99865.94;5067341;28;8912;-70
2023/09/25 07:30:10;;;;;;;;;13.00;13.00;;;;;19.20;73.69;99871.19;5052625;28;8841;-72
2023/09/25 07:32:42;;;;;;;;;24.60;23.40;;;;;19.04;74.70;99867.56;5057254;28;8849;-71
2023/09/25 07:35:15;;;;;;;;;28.60;26.40;;;;;19.05;74.00;99870.16;5058953;28;8943;-71
2023/09/25 07:37:44;;;;;;;;;29.60;28.00;;;;;19.21;73.60;99875.56;5031330;28;8911;-72
2023/09/25 07:40:14;;;;;;;;;27.40;26.00;;;;;19.32;73.32;99878.53;5067111;28;8843;-72
2023/09/25 07:42:44;;;;;;;;;28.20;27.20;;;;;19.42;72.56;99878.91;5057442;28;8901;-72
2023/09/25 07:45:22;;;;;;;;;29.40;27.80;;;;;19.33;71.43;99880.28;5069626;28;8932;-72
2023/09/25 07:47:52;;;;;;;;;23.60;22.60;;;;;19.31;72.40;99879.50;5061135;28;8857;-71
2023/09/25 07:50:24;;;;;;;;;28.00;26.80;;;;;19.46;72.22;99880.50;5056890;28;8842;-70
2023/09/25 07:52:54;;;;;;;;;27.00;24.60;;;;;19.05;72.16;99887.97;5060353;28;8849;-72
2023/09/25 07:55:24;;;;;;;;;24.40;22.00;;;;;19.10;72.97;99891.22;5044696;28;8858;-72
2023/09/25 07:57:54;;;;;;;;;24.20;22.40;;;;;19.12;72.60;99895.56;5044601;28;8877;-70
2023/09/25 08:00:24;;;;;;;;;21.00;19.20;;;;;19.12;71.90;99902.69;5045981;28;8854;-70
2023/09/25 08:02:53;;;;;;;;;26.80;24.00;;;;;19.07;72.31;99910.91;5047925;28;8964;-72
2023/09/25 08:05:23;;;;;;;;;23.00;22.00;;;;;18.93;73.11;99913.41;4997322;28;8869;-71
2023/09/25 08:07:53;;;;;;;;;18.80;18.40;;;;;19.15;71.85;99915.00;5045768;28;8893;-70
2023/09/25 08:10:24;;;;;;;;;14.80;14.40;;;;;19.08;71.40;99904.66;5048433;28;8993;-71
2023/09/25 08:12:55;;;;;;;;;17.00;16.60;;;;;18.72;71.89;99901.97;5048090;28;8882;-70
2023/09/25 08:15:24;;;;;;;;;16.60;15.00;;;;;18.30;71.99;99896.00;5047896;28;8882;-72
2023/09/25 08:17:53;;;;;;;;;16.20;14.20;;;;;18.39;72.22;99897.38;5047761;28;8857;-70
2023/09/25 08:20:26;;;;;;;;;16.20;15.60;;;;;18.47;72.53;99895.19;5037907;28;8838;-71
2023/09/25 08:22:56;;;;;;;;;15.80;15.80;;;;;18.42;73.76;99893.69;5047792;28;9639;-72
2023/09/25 08:25:26;;;;;;;;;14.60;14.60;;;;;18.15;73.24;99888.75;5047694;28;8846;-71
2023/09/25 08:27:56;;;;;;;;;13.40;13.40;;;;;18.35;73.12;99899.31;5048055;28;8888;-71
2023/09/25 08:30:25;;;;;;;;;13.60;12.40;;;;;18.38;73.40;99898.28;5046579;28;8846;-71
2023/09/25 08:32:56;;;;;;;;;15.00;14.80;;;;;17.87;73.35;99897.09;5041639;28;8879;-72
2023/09/25 08:35:25;;;;;;;;;11.00;11.00;;;;;17.94;72.42;99896.75;5028996;28;8875;-71
2023/09/25 08:37:54;;;;;;;;;18.60;16.40;;;;;18.22;73.06;99898.16;5064752;28;8870;-71
2023/09/25 08:40:23;;;;;;;;;15.60;15.60;;;;;18.21;72.94;99893.78;5070142;28;8854;-70
2023/09/25 08:42:54;;;;;;;;;15.80;15.80;;;;;17.86;71.79;99896.25;5050819;28;8894;-71
2023/09/25 08:45:45;;;;;;;;;15.20;15.00;;;;;17.67;73.09;99895.38;5070041;28;8947;-72
2023/09/25 08:48:18;;;;;;;;;16.20;16.20;;;;;17.96;73.29;99892.22;5058325;28;8953;-71
2023/09/25 08:50:48;;;;;;;;;14.20;13.80;;;;;18.09;73.50;99887.25;5070030;28;8850;-73
2023/09/25 08:53:17;;;;;;;;;17.40;17.40;;;;;18.32;73.45;99879.97;5052251;28;8888;-72
2023/09/25 08:55:47;;;;;;;;;19.40;17.60;;;;;18.60;73.47;99883.97;5072178;28;8966;-71
2023/09/25 08:58:16;;;;;;;;;18.00;17.00;;;;;18.45;72.36;99885.56;5070225;28;8895;-71
2023/09/25 09:00:47;;;;;;;;;15.00;14.60;;;;;17.83;72.45;99884.88;5067789;28;8834;-72
2023/09/25 09:03:16;;;;;;;;;13.60;12.20;;;;;17.73;72.31;99887.09;5069651;28;8854;-73
2023/09/25 09:05:46;;;;;;;;;16.00;15.60;;;;;17.09;74.42;99886.31;5064075;28;9658;-71
2023/09/25 09:08:17;;;;;;;;;12.00;11.80;;;;;16.85;75.22;99882.88;5070004;28;8874;-72
2023/09/25 09:10:46;;;;;;;;;15.40;13.60;;;;;17.22;75.44;99873.38;5053024;28;8853;-70
2023/09/25 09:13:16;;;;;;;;;13.40;12.00;;;;;17.41;75.44;99864.63;5065297;28;8866;-73
2023/09/25 09:15:47;;;;;;;;;16.60;14.20;;;;;17.84;75.16;99866.22;5068456;28;8960;-72
2023/09/25 09:18:20;;;;;;;;;16.40;16.00;;;;;18.08;74.48;99852.72;5069345;28;8859;-70
2023/09/25 09:20:54;;;;;;;;;18.80;18.60;;;;;18.18;74.55;99866.47;5069465;28;9690;-72
2023/09/25 09:23:39;;;;;;;;;17.00;16.40;;;;;18.70;75.11;99862.09;5065064;28;8841;-72
2023/09/25 09:26:12;;;;;;;;;13.80;12.80;;;;;18.73;75.26;99867.28;5067630;28;8953;-73
2023/09/25 09:28:42;;;;;;;;;18.80;17.80;;;;;18.98;74.64;99859.91;5067690;28;8831;-72
2023/09/25 09:31:14;;;;;;;;;20.00;19.20;;;;;19.12;72.99;99852.94;5068553;28;8847;-73
2023/09/25 09:33:43;;;;;;;;;16.00;16.00;;;;;19.08;72.78;99862.03;5055202;28;9695;-73
2023/09/25 09:36:13;;;;;;;;;16.80;16.60;;;;;19.31;72.61;99865.31;5068175;28;8847;-72
2023/09/25 09:38:43;;;;;;;;;18.60;17.80;;;;;19.55;72.17;99864.97;5068691;28;8888;-73
2023/09/25 09:41:13;;;;;;;;;20.80;20.00;;;;;19.67;72.00;99859.84;5056580;28;8851;-74
2023/09/25 09:43:42;;;;;;;;;20.80;20.20;;;;;19.94;71.69;99855.75;5035976;28;8874;-72
2023/09/25 09:46:14;;;;;;;;;23.40;23.00;;;;;19.70;71.75;99851.66;5065551;28;8849;-70
2023/09/25 09:48:46;;;;;;;;;29.00;28.40;;;;;19.56;69.91;99846.22;5048438;28;9631;-73
2023/09/25 09:51:18;;;;;;;;;28.00;27.40;;;;;19.28;68.71;99849.47;5064156;28;8837;-71
2023/09/25 09:53:47;;;;;;;;;26.20;26.00;;;;;19.63;70.71;99860.97;5029328;28;8909;-71
2023/09/25 09:56:18;;;;;;;;;28.60;28.20;;;;;19.80;70.42;99852.06;5061599;28;8874;-73
2023/09/25 09:58:48;;;;;;;;;29.80;29.80;;;;;20.01;70.13;99857.13;5053551;28;8884;-72
2023/09/25 10:01:20;;;;;;;;;28.20;27.60;;;;;20.31;69.57;99859.06;5059476;28;9593;-71
2023/09/25 10:03:49;;;;;;;;;34.80;31.80;;;;;20.25;68.06;99849.59;5048746;28;8857;-71
2023/09/25 10:06:19;;;;;;;;;36.20;32.40;;;;;20.32;69.06;99850.13;5048150;28;8837;-72
2023/09/25 10:09:02;;;;;;;;;30.00;28.60;;;;;20.56;67.56;99845.16;5062065;28;8877;-73
2023/09/25 10:11:31;;;;;;;;;26.60;25.20;;;;;20.53;69.64;99843.53;5061893;28;8862;-74
2023/09/25 10:14:04;;;;;;;;;30.40;28.80;;;;;20.78;68.65;99844.78;5066090;28;8863;-73
2023/09/25 10:16:56;;;;;;;;;30.80;28.60;;;;;20.89;66.51;99847.69;5068376;28;8862;-71
2023/09/25 10:19:47;;;;;;;;;27.40;27.00;;;;;20.91;63.98;99840.44;5008746;28;8849;-71
2023/09/25 10:22:21;;;;;;;;;34.40;31.00;;;;;20.98;66.99;99839.16;5061013;28;8877;-74
2023/09/25 10:25:04;;;;;;;;;33.60;31.20;;;;;21.07;63.96;99837.75;5048654;28;8999;-73
2023/09/25 10:27:35;;;;;;;;;32.60;29.80;;;;;21.26;67.23;99840.16;5070025;28;8870;-71
2023/09/25 10:30:11;;;;;;;;;31.60;28.60;;;;;21.43;67.06;99834.63;5021072;28;9082;-73
2023/09/25 10:32:49;;;;;;;;;27.60;26.00;;;;;21.40;63.24;99839.31;5034622;28;8890;-72
2023/09/25 10:35:40;;;;;;;;;30.00;28.20;;;;;21.82;62.17;99840.28;5066663;28;8942;-72
2023/09/25 10:38:11;;;;;;;;;31.80;30.80;;;;;21.66;65.11;99836.88;5051427;28;8837;-73
2023/09/25 10:41:01;;;;;;;;;31.80;30.20;;;;;21.56;64.24;99817.81;5061262;28;8857;-73
2023/09/25 10:43:31;;;;;;;;;31.00;30.80;;;;;21.55;64.87;99819.63;5068115;28;8851;-70
2023/09/25 10:46:01;;;;;;;;;32.20;31.20;;;;;21.51;65.57;99817.25;5066935;28;8862;-73
2023/09/25 10:48:32;;;;;;;;;39.00;32.00;;;;;21.61;64.14;99823.78;5061964;28;8830;-73
2023/09/25 10:51:01;;;;;;;;;30.60;30.60;;;;;21.50;64.79;99826.22;5054347;28;8853;-70
2023/09/25 10:53:30;;;;;;;;;49.25;39.25;;;;;20.58;64.92;99828.13;5046861;28;8861;-72
2023/09/25 10:55:58;;;;;;;;;35.40;33.20;;;;;21.07;66.16;99835.06;5060788;28;8996;-73
2023/09/25 10:58:27;;;;;;;;;34.00;32.00;;;;;21.26;65.05;99842.84;5064122;28;9582;-74
2023/09/25 11:00:57;;;;;;;;;38.60;34.60;;;;;21.32;65.38;99838.94;5067510;28;9819;-75
2023/09/25 11:03:26;;;;;;;;;36.20;34.00;;;;;21.45;66.38;99839.91;5066782;28;8850;-71
2023/09/25 11:05:57;;;;;;;;;28.40;28.00;;;;;21.54;66.00;99836.66;5057686;28;8842;-72
2023/09/25 11:08:26;;;;;;;;;36.20;31.40;;;;;21.61;65.88;99839.81;5054586;28;9594;-72
2023/09/25 11:10:56;;;;;;;;;35.60;33.00;;;;;21.64;62.67;99836.97;5067500;28;8948;-72
2023/09/25 11:13:29;;;;;;;;;30.00;29.80;;;;;21.75;64.11;99839.81;5067290;28;8874;-71
2023/09/25 11:16:00;;;;;;;;;36.40;33.20;;;;;21.86;63.40;99844.47;5067107;28;8838;-72
2023/09/25 11:18:29;;;;;;;;;32.80;31.60;;;;;21.98;63.38;99835.69;5047836;28;8849;-71
2023/09/25 11:21:00;;;;;;;;;33.60;31.40;;;;;22.10;63.62;99842.06;5065794;28;8859;-71
2023/09/25 11:23:33;;;;;;;;;36.80;33.00;;;;;22.25;64.85;99837.56;5062299;28;8862;-71
2023/09/25 11:26:04;;;;;;;;;33.60;31.00;;;;;22.31;64.15;99839.81;5067314;28;8861;-71
2023/09/25 11:28:33;;;;;;;;;34.20;31.40;;;;;22.44;63.55;99839.88;5065160;28;8997;-73
2023/09/25 11:31:03;;;;;;;;;37.00;33.40;;;;;22.39;63.08;99837.53;5051610;28;8881;-71
2023/09/25 11:33:32;;;;;;;;;37.60;33.80;;;;;22.70;62.46;99843.53;5043689;28;8928;-74
2023/09/25 11:36:11;;;;;;;;;27.20;27.20;;;;;22.76;58.52;99839.56;5064371;28;8921;-73
2023/09/25 11:38:40;;;;;;;;;37.80;33.40;;;;;22.66;61.79;99833.13;5066383;28;8826;-72
2023/09/25 11:41:10;;;;;;;;;35.60;33.20;;;;;22.72;61.61;99844.28;5067510;28;9617;-72
2023/09/25 11:43:39;;;;;;;;;37.60;33.00;;;;;22.80;60.13;99835.72;5069217;28;8941;-72